Aviation Digital Data Service (ADDS)

Output produced by TAFs form (0751 UTC 25 March 2017)
found at http://www.aviationweather.gov/adds/tafs/
 
METAR text: RJTF 250700Z 16006KT 120V240 9999 FEW030 BKN/// 11/M07 Q1018
Conditions at: RJTF (CHOFU AIRPORT , JP) observed 0700 UTC 25 March 2017
Temperature: 11.0°C (52°F)
Dewpoint: -7.0°C (19°F) [RH = 28%]
Pressure (altimeter): 30.06 inches Hg (1018.0 mb)
Winds: from the SSE (160 degrees) at 7 MPH (6 knots; 3.1 m/s)
Visibility: 6 or more miles (10+ km)
Ceiling: at least 12,000 feet AGL
Clouds: few clouds at 3000 feet AGL
Weather: no significant weather observed at this time